createdAt,value
2018-07-03T00:01:55.059Z,52.80
2018-07-03T00:04:23.349Z,53.20
2018-07-03T00:06:51.673Z,53.40
2018-07-03T00:09:20.558Z,53.20
2018-07-03T00:11:49.422Z,53.70
2018-07-03T00:14:18.578Z,53.50
2018-07-03T00:16:52.180Z,53.10
2018-07-03T00:19:20.508Z,53.50
2018-07-03T00:21:48.816Z,53.80
2018-07-03T00:24:17.470Z,54.10
2018-07-03T00:26:46.221Z,54.60
2018-07-03T00:31:53.184Z,55.20
2018-07-03T00:34:23.669Z,55.80
2018-07-03T00:36:55.732Z,56.80
2018-07-03T00:39:24.966Z,57.10
2018-07-03T00:41:57.186Z,57.50
2018-07-03T00:44:25.841Z,57.70
2018-07-03T00:46:54.321Z,57.80
2018-07-03T00:49:23.029Z,58.20
2018-07-03T00:51:51.517Z,58.80
2018-07-03T00:54:20.729Z,59.20
2018-07-03T00:56:51.049Z,59.40
2018-07-03T00:59:19.940Z,59.90
2018-07-03T01:01:48.334Z,60.10
2018-07-03T01:04:16.834Z,61.20
2018-07-03T01:06:45.193Z,61.60
2018-07-03T01:09:13.944Z,62.20
2018-07-03T01:11:42.366Z,62.70
2018-07-03T01:14:10.797Z,63.20
2018-07-03T01:16:39.161Z,63.40
2018-07-03T01:19:07.499Z,64.00
2018-07-03T01:21:35.833Z,64.40
2018-07-03T01:24:04.209Z,65.30
2018-07-03T01:26:32.529Z,65.90
2018-07-03T01:29:00.897Z,66.60
2018-07-03T01:31:29.256Z,67.80
2018-07-03T01:33:57.858Z,68.30
2018-07-03T01:36:26.308Z,69.90
2018-07-03T01:38:54.625Z,70.30
2018-07-03T01:41:22.965Z,70.40
2018-07-03T01:43:51.286Z,71.20
2018-07-03T01:46:19.637Z,72.10
2018-07-03T01:48:47.949Z,73.50
2018-07-03T01:51:16.260Z,73.50
2018-07-03T01:53:44.556Z,73.70
2018-07-03T01:56:12.881Z,74.90
2018-07-03T01:58:41.192Z,76.10
2018-07-03T02:01:09.586Z,77.00
2018-07-03T02:03:37.882Z,76.90
2018-07-03T02:06:06.249Z,77.40
2018-07-03T02:08:34.541Z,78.60
2018-07-03T02:11:02.903Z,79.10
2018-07-03T02:13:31.201Z,79.30
2018-07-03T02:15:59.562Z,80.40
2018-07-03T02:18:27.889Z,80.20
2018-07-03T02:20:56.877Z,80.80
2018-07-03T02:23:25.179Z,79.80
2018-07-03T02:25:53.514Z,78.00
2018-07-03T02:28:21.802Z,77.70
2018-07-03T02:30:50.112Z,77.50
2018-07-03T02:33:18.673Z,76.20
2018-07-03T02:35:47.003Z,75.90
2018-07-03T02:38:15.341Z,75.70
2018-07-03T02:40:43.653Z,76.50
2018-07-03T02:43:12.007Z,77.50
2018-07-03T02:45:40.287Z,77.40
2018-07-03T02:48:08.647Z,78.20
2018-07-03T02:50:36.957Z,78.30
2018-07-03T02:53:05.430Z,79.30
2018-07-03T02:55:33.924Z,79.60
2018-07-03T02:58:02.820Z,82.10
2018-07-03T03:00:31.426Z,80.50
2018-07-03T03:03:00.533Z,80.60
2018-07-03T03:05:28.929Z,80.90
2018-07-03T03:07:57.723Z,80.90
2018-07-03T03:10:26.366Z,80.80
2018-07-03T03:12:54.645Z,80.60
2018-07-03T03:15:22.998Z,80.60
2018-07-03T03:17:51.325Z,81.50
2018-07-03T03:20:19.735Z,80.10
2018-07-03T03:22:48.109Z,80.70
2018-07-03T03:25:16.509Z,81.90
2018-07-03T03:27:44.801Z,82.00
2018-07-03T03:30:13.210Z,82.80
2018-07-03T03:32:41.529Z,83.30
2018-07-03T03:35:09.858Z,83.80
2018-07-03T03:37:38.160Z,84.00
2018-07-03T03:40:06.539Z,83.20
2018-07-03T03:42:34.849Z,84.00
2018-07-03T03:47:31.199Z,85.20
2018-07-03T03:50:00.552Z,85.70
2018-07-03T03:52:28.881Z,85.10
2018-07-03T03:54:57.465Z,85.30
2018-07-03T03:57:25.794Z,87.00
2018-07-03T03:59:54.319Z,87.60
2018-07-03T04:02:22.697Z,88.60
2018-07-03T04:04:51.082Z,89.00
2018-07-03T04:07:20.890Z,89.00
2018-07-03T04:09:49.273Z,89.60
2018-07-03T04:12:17.604Z,90.10
2018-07-03T04:14:45.929Z,90.50
2018-07-03T04:17:14.234Z,90.40
2018-07-03T04:19:42.728Z,90.30
2018-07-03T04:22:11.110Z,90.00
2018-07-03T04:24:39.425Z,90.40
2018-07-03T04:27:07.794Z,90.30
2018-07-03T04:29:36.156Z,89.80
2018-07-03T04:32:04.520Z,89.90
2018-07-03T04:34:32.956Z,90.10
2018-07-03T04:37:01.295Z,89.30
2018-07-03T04:39:29.616Z,88.60
2018-07-03T04:41:57.960Z,87.90
2018-07-03T04:44:26.306Z,87.60
2018-07-03T04:46:54.660Z,88.00
2018-07-03T04:49:23.041Z,88.40
2018-07-03T04:51:51.404Z,88.10
2018-07-03T04:54:19.733Z,87.00
2018-07-03T04:56:48.110Z,86.60
2018-07-03T04:59:16.477Z,86.90
2018-07-03T05:01:44.784Z,87.70
2018-07-03T05:04:13.200Z,87.50
2018-07-03T05:06:41.541Z,87.90
2018-07-03T05:09:11.229Z,88.20
2018-07-03T05:11:39.557Z,88.20
2018-07-03T05:14:08.129Z,87.20
2018-07-03T05:16:36.453Z,87.00
2018-07-03T05:19:04.845Z,85.80
2018-07-03T05:21:33.214Z,84.70
2018-07-03T05:24:01.590Z,84.20
2018-07-03T05:26:29.977Z,83.20
2018-07-03T05:28:58.313Z,83.20
2018-07-03T05:31:26.674Z,83.50
2018-07-03T05:33:55.262Z,82.80
2018-07-03T05:36:23.641Z,81.80
2018-07-03T05:38:51.965Z,81.50
2018-07-03T05:41:20.290Z,82.60
2018-07-03T05:43:48.618Z,79.50
2018-07-03T05:46:17.034Z,78.00
2018-07-03T05:48:46.706Z,78.10
2018-07-03T05:51:15.051Z,78.10
2018-07-03T05:53:43.424Z,77.00
2018-07-03T05:56:11.816Z,76.30
2018-07-03T05:58:40.078Z,75.60
2018-07-03T06:01:08.377Z,75.20
2018-07-03T06:03:36.721Z,75.30
2018-07-03T06:06:05.110Z,74.70
2018-07-03T06:08:33.434Z,74.00
2018-07-03T06:11:01.719Z,73.40
2018-07-03T06:13:30.057Z,73.50
2018-07-03T06:18:26.426Z,73.30
2018-07-03T06:20:54.752Z,72.80
2018-07-03T06:23:23.082Z,72.60
2018-07-03T06:25:51.409Z,71.20
2018-07-03T06:28:19.750Z,70.50
2018-07-03T06:30:48.149Z,68.50
2018-07-03T06:33:16.462Z,67.60
2018-07-03T06:35:44.893Z,63.90
2018-07-03T06:38:13.252Z,63.80
2018-07-03T06:40:41.570Z,63.70
2018-07-03T06:43:09.929Z,63.30
2018-07-03T06:45:38.250Z,63.40
2018-07-03T06:48:06.621Z,60.00
2018-07-03T06:50:35.006Z,58.60
2018-07-03T06:53:03.450Z,58.50
2018-07-03T06:55:31.927Z,58.20
2018-07-03T06:58:00.221Z,58.50
2018-07-03T07:00:28.592Z,59.00
2018-07-03T07:02:56.990Z,57.90
2018-07-03T07:05:25.338Z,57.40
2018-07-03T07:07:53.869Z,55.80
2018-07-03T07:10:22.325Z,55.20
2018-07-03T07:12:50.709Z,55.50
2018-07-03T07:15:19.178Z,55.30
2018-07-03T07:17:48.048Z,55.00
2018-07-03T07:20:16.413Z,54.40
2018-07-03T07:22:44.837Z,54.50
2018-07-03T07:25:13.179Z,53.10
2018-07-03T07:27:41.581Z,53.00
2018-07-03T07:30:09.885Z,52.40
2018-07-03T07:32:38.315Z,52.30
2018-07-03T07:35:06.697Z,52.20
2018-07-03T07:37:35.146Z,52.30
2018-07-03T07:40:03.528Z,52.70
2018-07-03T07:42:31.866Z,52.80
2018-07-03T07:45:00.245Z,52.60
2018-07-03T07:47:28.673Z,52.80
2018-07-03T07:49:57.050Z,51.90
2018-07-03T07:52:25.414Z,51.60
2018-07-03T07:54:53.777Z,50.80
2018-07-03T07:57:22.114Z,51.20
2018-07-03T07:59:50.453Z,50.90
2018-07-03T08:02:18.884Z,50.20
2018-07-03T08:04:47.241Z,49.20
2018-07-03T08:07:15.635Z,49.40
2018-07-03T08:09:44.014Z,48.30
2018-07-03T08:12:12.701Z,48.30
2018-07-03T08:14:41.072Z,48.60
2018-07-03T08:17:09.545Z,48.00
2018-07-03T08:19:37.950Z,48.20
2018-07-03T08:22:06.422Z,48.30
2018-07-03T08:24:34.786Z,48.20
2018-07-03T08:27:03.204Z,48.00
2018-07-03T08:29:31.567Z,46.20
2018-07-03T08:31:59.967Z,46.50
2018-07-03T08:34:28.367Z,45.60
2018-07-03T08:36:56.749Z,45.70
2018-07-03T08:39:25.148Z,45.60
2018-07-03T08:41:53.544Z,45.60
2018-07-03T08:44:22.006Z,45.00
2018-07-03T08:46:50.385Z,44.90
2018-07-03T08:49:18.749Z,45.20
2018-07-03T08:51:47.172Z,43.40
2018-07-03T08:54:15.804Z,44.50
2018-07-03T08:56:44.306Z,43.50
2018-07-03T08:59:12.688Z,43.80
2018-07-03T09:01:41.150Z,44.20
2018-07-03T09:04:16.415Z,42.90
2018-07-03T09:06:44.805Z,42.20
2018-07-03T09:09:13.183Z,43.20
2018-07-03T09:11:41.647Z,41.50
2018-07-03T09:14:10.034Z,42.10
2018-07-03T09:16:38.758Z,41.80
2018-07-03T09:19:07.401Z,41.00
2018-07-03T09:21:35.787Z,40.80
2018-07-03T09:24:04.802Z,41.70
2018-07-03T09:26:33.309Z,41.30
2018-07-03T09:29:01.662Z,40.40
2018-07-03T09:31:30.127Z,41.70
2018-07-03T09:33:58.625Z,40.70
2018-07-03T09:36:27.039Z,40.00
2018-07-03T09:39:02.469Z,40.40
2018-07-03T09:41:30.850Z,39.80
2018-07-03T09:43:59.230Z,39.10
2018-07-03T09:46:27.677Z,38.90
2018-07-03T09:49:28.281Z,38.70
2018-07-03T09:52:12.826Z,38.10
2018-07-03T09:57:56.760Z,35.90
2018-07-03T10:00:37.296Z,36.30
2018-07-03T10:09:00.242Z,35.40
2018-07-03T10:11:57.744Z,36.20
2018-07-03T10:17:53.056Z,35.40
2018-07-03T10:20:36.330Z,35.30
2018-07-03T10:23:06.767Z,36.30
2018-07-03T10:25:47.923Z,36.30
2018-07-03T10:28:33.613Z,35.30
2018-07-03T10:31:04.951Z,36.00
2018-07-03T10:33:46.733Z,35.90
2018-07-03T10:36:16.132Z,35.70
2018-07-03T10:38:48.810Z,35.90
2018-07-03T10:41:34.964Z,36.00
2018-07-03T10:46:33.378Z,35.10
2018-07-03T10:49:02.429Z,35.00
2018-07-03T10:51:36.569Z,34.90
2018-07-03T10:54:14.062Z,34.70
2018-07-03T10:56:53.785Z,34.90
2018-07-03T10:59:23.335Z,35.50
2018-07-03T11:01:54.676Z,34.30
2018-07-03T11:04:23.076Z,34.70
2018-07-03T11:06:55.222Z,33.70
2018-07-03T11:09:24.612Z,33.80
2018-07-03T11:11:52.907Z,34.00
2018-07-03T11:14:21.195Z,33.90
2018-07-03T11:16:49.628Z,33.10
2018-07-03T11:19:18.927Z,32.90
2018-07-03T11:21:48.173Z,32.90
2018-07-03T11:24:18.351Z,32.90
2018-07-03T11:26:48.328Z,32.80
2018-07-03T11:29:17.086Z,32.50
2018-07-03T11:31:51.157Z,32.60
2018-07-03T11:34:19.578Z,32.60
2018-07-03T11:36:48.063Z,33.50
2018-07-03T11:39:16.788Z,32.60
2018-07-03T11:41:47.302Z,32.70
2018-07-03T11:44:18.822Z,31.60
2018-07-03T11:46:47.641Z,31.80
2018-07-03T11:49:17.999Z,31.80
2018-07-03T11:51:46.597Z,31.20
2018-07-03T11:54:15.255Z,30.60
2018-07-03T11:56:45.844Z,30.00
2018-07-03T11:59:17.804Z,29.50
2018-07-03T12:01:47.860Z,29.20
2018-07-03T12:04:16.692Z,30.00
2018-07-03T12:06:45.577Z,30.10
2018-07-03T12:09:15.871Z,30.50
2018-07-03T12:11:44.400Z,30.00
2018-07-03T12:14:14.474Z,29.90
2018-07-03T12:16:43.817Z,29.80
2018-07-03T12:19:12.631Z,30.40
2018-07-03T12:21:44.272Z,29.50
2018-07-03T12:24:19.465Z,29.60
2018-07-03T12:26:49.740Z,29.60
2018-07-03T12:29:20.215Z,29.80
2018-07-03T12:31:49.008Z,30.10
2018-07-03T12:34:39.778Z,29.80
2018-07-03T12:37:10.833Z,28.60
2018-07-03T12:39:41.184Z,28.90
2018-07-03T12:42:10.469Z,28.70
2018-07-03T12:44:39.513Z,28.10
2018-07-03T12:47:08.387Z,28.10
2018-07-03T12:49:42.974Z,28.30
2018-07-03T12:52:12.783Z,27.90
2018-07-03T12:54:41.364Z,28.20
2018-07-03T12:57:25.667Z,28.10
2018-07-03T12:59:57.990Z,27.90
2018-07-03T13:02:29.577Z,28.30
2018-07-03T13:07:57.993Z,28.70
2018-07-03T13:10:46.534Z,28.00
2018-07-03T13:13:15.789Z,28.30
2018-07-03T13:15:46.016Z,28.00
2018-07-03T13:18:27.304Z,27.70
2018-07-03T13:21:02.707Z,27.60
2018-07-03T13:23:35.756Z,27.70
2018-07-03T13:26:10.133Z,27.70
2018-07-03T13:28:39.431Z,27.40
2018-07-03T13:31:08.484Z,27.30
2018-07-03T13:33:54.075Z,28.30
2018-07-03T13:36:26.371Z,28.50
2018-07-03T13:38:55.529Z,28.10
2018-07-03T13:41:29.625Z,27.80
2018-07-03T13:43:59.134Z,27.80
2018-07-03T13:46:35.406Z,27.30
2018-07-03T13:49:05.253Z,27.00
2018-07-03T13:51:34.778Z,27.50
2018-07-03T13:54:03.610Z,26.90
2018-07-03T13:56:32.414Z,26.90
2018-07-03T13:59:02.578Z,26.20
2018-07-03T14:01:31.239Z,26.70
2018-07-03T14:04:02.130Z,26.60
2018-07-03T14:06:33.956Z,26.20
2018-07-03T14:09:09.660Z,26.50
2018-07-03T14:11:38.322Z,26.60
2018-07-03T14:14:07.451Z,26.50
2018-07-03T14:16:35.817Z,26.30
2018-07-03T14:19:06.020Z,25.10
2018-07-03T14:21:35.934Z,24.60
2018-07-03T14:24:04.354Z,23.90
2018-07-03T14:26:32.737Z,24.10
2018-07-03T14:29:05.754Z,24.10
2018-07-03T14:31:38.254Z,23.70
2018-07-03T14:34:08.831Z,23.30
2018-07-03T14:36:40.101Z,23.40
2018-07-03T14:39:15.683Z,22.90
2018-07-03T14:41:44.067Z,22.20
2018-07-03T14:44:12.679Z,22.90
2018-07-03T14:46:41.293Z,23.20
2018-07-03T14:49:11.046Z,23.80
2018-07-03T14:51:40.484Z,22.90
2018-07-03T14:54:10.933Z,23.50
2018-07-03T14:56:49.114Z,23.00
2018-07-03T14:59:19.602Z,23.00
2018-07-03T15:01:50.576Z,22.20
2018-07-03T15:04:19.558Z,22.60
2018-07-03T15:06:48.285Z,22.60
2018-07-03T15:09:18.657Z,22.80
2018-07-03T15:11:47.567Z,22.10
2018-07-03T15:14:17.278Z,23.50
2018-07-03T15:16:46.079Z,22.80
2018-07-03T15:19:19.967Z,23.00
2018-07-03T15:21:48.427Z,22.40
2018-07-03T15:24:16.929Z,21.70
2018-07-03T15:26:45.552Z,21.30
2018-07-03T15:29:14.847Z,21.50
2018-07-03T15:31:45.679Z,21.50
2018-07-03T15:34:14.744Z,21.60
2018-07-03T15:36:43.302Z,21.90
2018-07-03T15:39:15.231Z,21.50
2018-07-03T15:41:43.973Z,21.80
2018-07-03T15:44:23.604Z,22.10
2018-07-03T15:47:03.386Z,22.40
2018-07-03T15:49:31.879Z,20.90
2018-07-03T15:52:00.542Z,21.20
2018-07-03T15:54:30.116Z,21.70
2018-07-03T15:56:58.666Z,21.80
2018-07-03T15:59:27.290Z,22.50
2018-07-03T16:01:56.136Z,22.20
2018-07-03T16:05:34.373Z,22.30
2018-07-03T16:09:16.149Z,21.40
2018-07-03T16:11:57.327Z,20.90
2018-07-03T16:17:35.146Z,20.80
2018-07-03T16:20:09.979Z,21.10
2018-07-03T16:22:39.201Z,20.50
2018-07-03T16:25:09.719Z,21.10
2018-07-03T16:27:47.168Z,21.20
2018-07-03T16:30:17.459Z,21.80
2018-07-03T16:32:46.409Z,21.80
2018-07-03T16:35:16.189Z,21.50
2018-07-03T16:37:46.802Z,21.30
2018-07-03T16:40:16.219Z,21.70
2018-07-03T16:42:47.209Z,20.60
2018-07-03T16:45:18.246Z,20.40
2018-07-03T16:47:49.955Z,20.40
2018-07-03T16:50:20.112Z,20.70
2018-07-03T16:52:51.361Z,20.20
2018-07-03T16:55:20.239Z,20.70
2018-07-03T16:57:49.741Z,20.70
2018-07-03T17:00:27.061Z,21.50
2018-07-03T17:02:55.996Z,21.50
2018-07-03T17:05:25.134Z,22.00
2018-07-03T17:07:55.863Z,22.70
2018-07-03T17:10:24.622Z,22.40
2018-07-03T17:12:52.968Z,23.20
2018-07-03T17:15:21.456Z,23.60
2018-07-03T17:17:49.875Z,24.50
2018-07-03T17:20:20.506Z,24.30
2018-07-03T17:22:49.351Z,25.10
2018-07-03T17:25:18.404Z,25.70
2018-07-03T17:27:46.826Z,25.30
2018-07-03T17:30:16.196Z,25.10
2018-07-03T17:32:45.074Z,25.50
2018-07-03T17:35:14.195Z,25.40
2018-07-03T17:37:46.319Z,25.60
2018-07-03T17:40:26.659Z,25.10
2018-07-03T17:43:08.751Z,25.00
2018-07-03T17:45:50.124Z,25.00
2018-07-03T17:48:18.886Z,26.00
2018-07-03T17:50:47.524Z,26.10
2018-07-03T17:53:21.007Z,26.80
2018-07-03T17:55:55.296Z,27.00
2018-07-03T17:58:24.448Z,25.80
2018-07-03T18:00:52.866Z,26.60
2018-07-03T18:03:21.948Z,27.60
2018-07-03T18:05:50.418Z,27.50
2018-07-03T18:10:47.098Z,26.70
2018-07-03T18:13:15.544Z,27.10
2018-07-03T18:15:44.110Z,27.50
2018-07-03T18:18:12.418Z,26.80
2018-07-03T18:20:40.789Z,26.10
2018-07-03T18:23:09.184Z,25.80
2018-07-03T18:25:37.662Z,25.00
2018-07-03T18:28:10.422Z,25.10
2018-07-03T18:30:39.260Z,24.70
2018-07-03T18:33:09.625Z,24.80
2018-07-03T18:35:57.901Z,25.70
2018-07-03T18:38:45.951Z,26.00
2018-07-03T18:41:19.284Z,26.60
2018-07-03T18:43:47.617Z,26.90
2018-07-03T18:46:15.942Z,28.20
2018-07-03T18:48:44.256Z,29.20
2018-07-03T18:53:47.429Z,30.30
2018-07-03T18:56:19.718Z,31.30
2018-07-03T18:58:48.210Z,31.40
2018-07-03T19:01:16.594Z,32.00
2018-07-03T19:03:53.861Z,32.50
2018-07-03T19:06:22.323Z,32.70
2018-07-03T19:08:50.769Z,33.50
2018-07-03T19:13:47.270Z,34.80
2018-07-03T19:16:16.733Z,35.50
2018-07-03T19:18:45.082Z,35.80
2018-07-03T19:21:13.498Z,36.50
2018-07-03T19:23:41.844Z,37.20
2018-07-03T19:26:17.758Z,37.80
2018-07-03T19:28:50.498Z,39.50
2018-07-03T19:31:18.886Z,39.10
2018-07-03T19:36:20.494Z,39.70
2018-07-03T19:38:48.863Z,40.10
2018-07-03T19:41:17.191Z,40.90
2018-07-03T19:43:51.229Z,40.90
2018-07-03T19:46:19.737Z,41.20
2018-07-03T19:48:50.162Z,42.00
2018-07-03T19:51:18.516Z,42.50
2018-07-03T19:53:46.884Z,42.70
2018-07-03T19:56:15.272Z,43.40
2018-07-03T19:58:43.709Z,43.80
2018-07-03T20:01:12.241Z,44.40
2018-07-03T20:03:40.688Z,44.70
2018-07-03T20:06:09.070Z,45.40
2018-07-03T20:08:37.430Z,45.80
2018-07-03T20:11:11.196Z,46.30
2018-07-03T20:13:39.922Z,46.80
2018-07-03T20:16:08.301Z,47.60
2018-07-03T20:18:36.742Z,48.40
2018-07-03T20:21:05.125Z,49.10
2018-07-03T20:23:33.569Z,49.40
2018-07-03T20:26:02.257Z,49.50
2018-07-03T20:28:30.707Z,50.10
2018-07-03T20:31:00.401Z,50.60
2018-07-03T20:33:29.006Z,50.70
2018-07-03T20:35:57.602Z,51.60
2018-07-03T20:38:26.078Z,51.60
2018-07-03T20:40:57.365Z,53.00
2018-07-03T20:43:26.712Z,52.70
2018-07-03T20:45:55.189Z,53.20
2018-07-03T20:48:24.073Z,54.30
2018-07-03T20:50:52.650Z,55.30
2018-07-03T20:53:21.116Z,55.70
2018-07-03T20:55:49.465Z,55.30
2018-07-03T20:58:17.747Z,54.60
2018-07-03T21:00:46.094Z,55.10
2018-07-03T21:03:14.411Z,56.00
2018-07-03T21:05:42.764Z,56.60
2018-07-03T21:08:11.181Z,57.30
2018-07-03T21:10:39.494Z,60.00
2018-07-03T21:13:07.842Z,62.30
2018-07-03T21:15:36.249Z,63.20
2018-07-03T21:18:05.372Z,63.80
2018-07-03T21:20:33.817Z,65.20
2018-07-03T21:23:02.365Z,66.20
2018-07-03T21:25:30.734Z,65.00
2018-07-03T21:30:28.335Z,65.00
2018-07-03T21:32:56.766Z,64.40
2018-07-03T21:35:25.800Z,63.80
2018-07-03T21:37:54.378Z,63.00
2018-07-03T21:40:23.047Z,65.30
2018-07-03T21:42:51.560Z,65.70
2018-07-03T21:45:20.545Z,66.40
2018-07-03T21:47:53.504Z,66.90
2018-07-03T21:50:24.995Z,69.00
2018-07-03T21:52:55.135Z,67.60
2018-07-03T21:55:24.402Z,67.30
2018-07-03T21:57:55.959Z,67.90
2018-07-03T22:02:58.473Z,67.80
2018-07-03T22:05:26.895Z,66.50
2018-07-03T22:07:55.377Z,66.50
2018-07-03T22:10:24.361Z,67.80
2018-07-03T22:12:52.910Z,68.90
2018-07-03T22:15:21.319Z,69.70
2018-07-03T22:17:49.638Z,70.20
2018-07-03T22:20:17.956Z,69.90
2018-07-03T22:22:46.235Z,69.70
2018-07-03T22:25:14.592Z,70.10
2018-07-03T22:27:43.002Z,70.20
2018-07-03T22:30:11.335Z,70.70
2018-07-03T22:32:39.666Z,71.40
2018-07-03T22:35:08.719Z,71.90
2018-07-03T22:37:37.687Z,71.70
2018-07-03T22:40:06.210Z,72.30
2018-07-03T22:42:35.940Z,72.30
2018-07-03T22:45:05.210Z,72.30
2018-07-03T22:47:34.128Z,72.20
2018-07-03T22:50:04.006Z,73.50
2018-07-03T22:52:36.253Z,73.30
2018-07-03T22:55:05.857Z,74.30
2018-07-03T22:57:36.493Z,73.80
2018-07-03T23:00:11.260Z,73.90
2018-07-03T23:02:41.556Z,73.20
2018-07-03T23:05:11.316Z,73.80
2018-07-03T23:07:41.068Z,74.30
2018-07-03T23:10:10.462Z,75.50
2018-07-03T23:12:40.772Z,75.20
2018-07-03T23:15:10.394Z,75.90
2018-07-03T23:17:39.844Z,77.00
2018-07-03T23:20:09.126Z,77.70
2018-07-03T23:22:38.355Z,78.10
2018-07-03T23:25:08.517Z,77.90
2018-07-03T23:27:37.410Z,77.40
2018-07-03T23:30:06.659Z,77.10
2018-07-03T23:32:35.431Z,76.60
2018-07-03T23:35:03.986Z,75.80
2018-07-03T23:37:33.143Z,75.80
2018-07-03T23:40:03.836Z,75.50
2018-07-03T23:42:36.277Z,75.50
2018-07-03T23:45:07.521Z,75.30
2018-07-03T23:47:47.482Z,76.50
2018-07-03T23:50:27.579Z,77.00
2018-07-03T23:53:08.173Z,78.10
2018-07-03T23:55:50.275Z,78.50
